Canal Flats, Canada
Current Conditions -  °F | °C
As of 3:00 AM on Friday 19 Dec 2014 (Local Time) from CYXC Reporting Station
Rain Showers Rain Showers  
Wind Chill: 30°   Ceiling: 4800
Heat Index: 30°   Visibility: 15mi
Dew Point: 28°   Wind: 0mph
Humidity: 93%   Direction: NA
Pressure: 29.91"   Gusts: NA
Location:  50.15°N, 115.83°W
Report Text: CYXC 191000Z 00000KT 15SM VCSH FEW020 BKN048 OVC095 M01/M02 A2991 RMK SF1SC5AC2 SLP162
Loading
Personal Weather Stations






























Interactive Weather Map New forecast layout! Learn more

10-Day Weather Forecast

Advertisements
Track Severe Weather on mobile